createdAt,value
2018-08-03T00:01:44.230Z,21.62
2018-08-03T00:04:12.722Z,21.64
2018-08-03T00:06:41.229Z,21.70
2018-08-03T00:09:10.486Z,21.70
2018-08-03T00:11:39.405Z,21.65
2018-08-03T00:14:07.954Z,21.64
2018-08-03T00:16:36.469Z,21.50
2018-08-03T00:19:04.990Z,21.45
2018-08-03T00:21:34.035Z,21.50
2018-08-03T00:24:02.502Z,21.53
2018-08-03T00:26:31.204Z,21.55
2018-08-03T00:28:59.680Z,21.57
2018-08-03T00:31:28.531Z,21.54
2018-08-03T00:33:57.045Z,21.48
2018-08-03T00:36:25.534Z,21.43
2018-08-03T00:38:54.538Z,21.49
2018-08-03T00:41:23.173Z,21.38
2018-08-03T00:43:51.788Z,21.32
2018-08-03T00:46:20.288Z,21.34
2018-08-03T00:48:48.785Z,21.28
2018-08-03T00:51:17.288Z,21.35
2018-08-03T00:53:45.857Z,21.23
2018-08-03T00:56:14.499Z,21.10
2018-08-03T00:58:43.069Z,21.02
2018-08-03T01:01:11.557Z,20.97
2018-08-03T01:03:40.245Z,20.90
2018-08-03T01:06:09.375Z,20.85
2018-08-03T01:08:37.926Z,20.77
2018-08-03T01:11:06.523Z,20.80
2018-08-03T01:13:35.030Z,20.72
2018-08-03T01:16:03.552Z,20.57
2018-08-03T01:18:32.035Z,20.55
2018-08-03T01:21:00.549Z,20.44
2018-08-03T01:23:29.106Z,20.39
2018-08-03T01:25:57.642Z,20.34
2018-08-03T01:28:26.142Z,20.32
2018-08-03T01:30:54.666Z,20.32
2018-08-03T01:33:23.182Z,20.18
2018-08-03T01:35:51.689Z,20.14
2018-08-03T01:38:20.228Z,20.08
2018-08-03T01:40:48.884Z,20.01
2018-08-03T01:43:17.394Z,20.02
2018-08-03T01:45:45.939Z,20.00
2018-08-03T01:48:14.450Z,19.94
2018-08-03T01:50:43.008Z,19.94
2018-08-03T01:53:11.530Z,19.87
2018-08-03T01:55:40.026Z,19.82
2018-08-03T01:58:08.554Z,19.80
2018-08-03T02:00:37.140Z,19.81
2018-08-03T02:03:05.707Z,19.77
2018-08-03T02:05:34.254Z,19.73
2018-08-03T02:08:03.007Z,19.71
2018-08-03T02:10:31.551Z,19.65
2018-08-03T02:13:00.058Z,19.63
2018-08-03T02:15:28.550Z,19.59
2018-08-03T02:17:57.050Z,19.55
2018-08-03T02:20:25.588Z,19.53
2018-08-03T02:22:54.157Z,19.49
2018-08-03T02:25:22.727Z,19.57
2018-08-03T02:27:51.374Z,19.43
2018-08-03T02:30:19.896Z,19.41
2018-08-03T02:32:48.649Z,19.37
2018-08-03T02:35:17.122Z,19.33
2018-08-03T02:37:45.675Z,19.37
2018-08-03T02:40:14.303Z,19.37
2018-08-03T02:42:42.793Z,19.39
2018-08-03T02:45:11.334Z,19.27
2018-08-03T02:47:39.869Z,19.19
2018-08-03T02:50:08.425Z,19.23
2018-08-03T02:52:36.955Z,19.24
2018-08-03T02:55:05.598Z,19.32
2018-08-03T02:57:34.531Z,19.27
2018-08-03T03:00:03.034Z,19.20
2018-08-03T03:02:31.570Z,19.18
2018-08-03T03:05:00.201Z,19.27
2018-08-03T03:07:28.918Z,19.21
2018-08-03T03:09:57.416Z,19.16
2018-08-03T03:12:25.912Z,19.10
2018-08-03T03:14:54.415Z,19.09
2018-08-03T03:17:22.977Z,19.15
2018-08-03T03:19:51.441Z,19.06
2018-08-03T03:22:20.100Z,19.01
2018-08-03T03:24:48.831Z,19.07
2018-08-03T03:27:17.333Z,19.08
2018-08-03T03:29:45.913Z,19.10
2018-08-03T03:32:14.426Z,19.06
2018-08-03T03:34:42.930Z,19.12
2018-08-03T03:37:11.543Z,19.12
2018-08-03T03:39:40.043Z,19.15
2018-08-03T03:42:09.291Z,19.14
2018-08-03T03:44:37.777Z,19.05
2018-08-03T03:47:06.576Z,19.02
2018-08-03T03:49:35.118Z,18.98
2018-08-03T03:52:03.617Z,19.02
2018-08-03T03:54:32.160Z,18.96
2018-08-03T03:57:00.767Z,19.00
2018-08-03T03:59:29.249Z,19.05
2018-08-03T04:01:57.781Z,19.04
2018-08-03T04:04:26.313Z,19.13
2018-08-03T04:06:54.837Z,19.12
2018-08-03T04:09:23.322Z,19.16
2018-08-03T04:11:51.909Z,19.25
2018-08-03T04:14:20.385Z,19.28
2018-08-03T04:16:48.901Z,19.44
2018-08-03T04:19:17.526Z,19.52
2018-08-03T04:21:46.023Z,19.50
2018-08-03T04:24:14.577Z,19.67
2018-08-03T04:26:43.123Z,19.67
2018-08-03T04:29:11.638Z,19.72
2018-08-03T04:31:40.281Z,19.82
2018-08-03T04:34:08.784Z,19.89
2018-08-03T04:36:38.083Z,19.93
2018-08-03T04:39:07.741Z,20.02
2018-08-03T04:41:36.289Z,20.10
2018-08-03T04:44:04.792Z,20.13
2018-08-03T04:46:33.309Z,20.28
2018-08-03T04:49:01.827Z,20.32
2018-08-03T04:51:30.393Z,20.40
2018-08-03T04:53:59.137Z,20.43
2018-08-03T04:56:27.690Z,20.46
2018-08-03T04:58:56.195Z,20.54
2018-08-03T05:01:24.684Z,20.63
2018-08-03T05:03:53.239Z,20.68
2018-08-03T05:06:21.791Z,20.77
2018-08-03T05:08:50.367Z,20.90
2018-08-03T05:11:18.906Z,20.96
2018-08-03T05:13:47.426Z,21.08
2018-08-03T05:16:15.996Z,21.17
2018-08-03T05:18:44.478Z,21.27
2018-08-03T05:21:13.097Z,21.30
2018-08-03T05:23:41.587Z,21.34
2018-08-03T05:26:10.145Z,21.68
2018-08-03T05:28:39.373Z,22.70
2018-08-03T05:31:08.470Z,24.93
2018-08-03T05:33:37.329Z,26.67
2018-08-03T05:36:05.958Z,27.87
2018-08-03T05:38:34.444Z,28.30
2018-08-03T05:41:03.108Z,28.14
2018-08-03T05:43:31.788Z,27.09
2018-08-03T05:46:00.411Z,28.61
2018-08-03T05:48:29.131Z,28.44
2018-08-03T05:50:57.803Z,29.02
2018-08-03T05:53:26.311Z,29.51
2018-08-03T05:55:54.867Z,30.79
2018-08-03T05:58:23.386Z,29.43
2018-08-03T06:00:52.120Z,29.37
2018-08-03T06:03:20.606Z,30.91
2018-08-03T06:05:49.245Z,31.11
2018-08-03T06:08:17.860Z,31.29
2018-08-03T06:10:46.334Z,30.66
2018-08-03T06:13:14.878Z,31.65
2018-08-03T06:15:43.403Z,32.36
2018-08-03T06:18:11.928Z,30.39
2018-08-03T06:20:40.565Z,30.85
2018-08-03T06:23:09.079Z,32.61
2018-08-03T06:25:37.583Z,33.40
2018-08-03T06:28:06.341Z,31.91
2018-08-03T06:30:34.899Z,29.33
2018-08-03T06:33:03.526Z,30.50
2018-08-03T06:35:32.062Z,30.07
2018-08-03T06:38:00.631Z,31.16
2018-08-03T06:40:29.157Z,30.05
2018-08-03T06:42:57.647Z,29.97
2018-08-03T06:45:26.198Z,30.42
2018-08-03T06:47:54.717Z,30.85
2018-08-03T06:50:23.275Z,30.31
2018-08-03T06:52:51.821Z,29.77
2018-08-03T06:55:20.334Z,30.03
2018-08-03T06:57:48.893Z,30.46
2018-08-03T07:00:17.832Z,30.91
2018-08-03T07:02:47.127Z,29.79
2018-08-03T07:05:15.817Z,27.81
2018-08-03T07:07:44.454Z,25.63
2018-08-03T07:10:12.989Z,24.73
2018-08-03T07:12:41.670Z,24.49
2018-08-03T07:15:10.196Z,24.35
2018-08-03T07:17:38.744Z,24.33
2018-08-03T07:20:07.426Z,24.44
2018-08-03T07:22:35.844Z,24.42
2018-08-03T07:25:04.457Z,24.61
2018-08-03T07:27:32.986Z,24.88
2018-08-03T07:30:01.605Z,25.03
2018-08-03T07:32:30.169Z,25.08
2018-08-03T07:34:58.638Z,25.17
2018-08-03T07:37:27.263Z,25.16
2018-08-03T07:39:55.816Z,25.17
2018-08-03T07:42:24.357Z,25.44
2018-08-03T07:44:53.092Z,25.63
2018-08-03T07:47:21.649Z,25.60
2018-08-03T07:49:50.294Z,25.66
2018-08-03T07:52:18.804Z,25.78
2018-08-03T07:54:47.407Z,26.02
2018-08-03T07:57:15.920Z,26.00
2018-08-03T07:59:44.406Z,26.07
2018-08-03T08:02:13.559Z,26.26
2018-08-03T08:04:42.104Z,26.38
2018-08-03T08:07:10.619Z,26.23
2018-08-03T08:09:39.194Z,26.29
2018-08-03T08:12:07.902Z,26.43
2018-08-03T08:14:36.498Z,26.58
2018-08-03T08:17:05.064Z,26.50
2018-08-03T08:19:33.541Z,26.46
2018-08-03T08:22:02.089Z,26.47
2018-08-03T08:24:30.664Z,26.68
2018-08-03T08:26:59.300Z,26.95
2018-08-03T08:29:27.941Z,27.20
2018-08-03T08:31:56.896Z,27.25
2018-08-03T08:34:25.436Z,27.37
2018-08-03T08:36:54.022Z,27.48
2018-08-03T08:39:22.531Z,27.46
2018-08-03T08:41:51.097Z,27.39
2018-08-03T08:44:19.659Z,27.39
2018-08-03T08:46:48.217Z,27.60
2018-08-03T08:49:16.815Z,27.80
2018-08-03T08:51:45.314Z,27.80
2018-08-03T08:54:13.872Z,27.76
2018-08-03T08:56:42.573Z,27.69
2018-08-03T08:59:11.911Z,27.96
2018-08-03T09:01:40.476Z,28.08
2018-08-03T09:04:08.950Z,28.28
2018-08-03T09:06:37.449Z,28.51
2018-08-03T09:09:08.558Z,28.31
2018-08-03T09:11:37.397Z,28.39
2018-08-03T09:14:05.984Z,28.45
2018-08-03T09:16:34.525Z,28.44
2018-08-03T09:19:03.282Z,28.44
2018-08-03T09:21:31.790Z,28.58
2018-08-03T09:24:00.320Z,28.67
2018-08-03T09:26:28.882Z,28.74
2018-08-03T09:28:57.491Z,28.81
2018-08-03T09:31:26.025Z,29.02
2018-08-03T09:33:54.988Z,29.18
2018-08-03T09:36:23.574Z,29.01
2018-08-03T09:38:52.122Z,29.26
2018-08-03T09:41:20.653Z,29.24
2018-08-03T09:43:49.350Z,29.11
2018-08-03T09:46:17.887Z,29.27
2018-08-03T09:48:46.614Z,29.39
2018-08-03T09:51:15.247Z,29.14
2018-08-03T09:53:43.810Z,29.18
2018-08-03T09:56:12.304Z,29.44
2018-08-03T09:58:40.851Z,29.45
2018-08-03T10:01:10.594Z,29.57
2018-08-03T10:03:39.900Z,29.82
2018-08-03T10:06:08.875Z,30.10
2018-08-03T10:08:38.202Z,30.13
2018-08-03T10:11:07.325Z,29.69
2018-08-03T10:13:35.833Z,29.80
2018-08-03T10:16:04.877Z,29.94
2018-08-03T10:18:33.437Z,29.91
2018-08-03T10:21:01.953Z,30.05
2018-08-03T10:23:30.569Z,29.71
2018-08-03T10:25:59.077Z,29.80
2018-08-03T10:28:27.722Z,30.09
2018-08-03T10:30:56.261Z,30.15
2018-08-03T10:33:24.823Z,30.28
2018-08-03T10:35:53.353Z,30.46
2018-08-03T10:38:21.993Z,30.43
2018-08-03T10:40:50.546Z,30.45
2018-08-03T10:43:19.103Z,30.50
2018-08-03T10:45:47.606Z,30.61
2018-08-03T10:48:16.200Z,30.75
2018-08-03T10:50:44.745Z,30.62
2018-08-03T10:53:13.221Z,30.82
2018-08-03T10:55:41.780Z,31.02
2018-08-03T10:58:10.264Z,30.88
2018-08-03T11:00:38.792Z,30.86
2018-08-03T11:03:07.583Z,30.97
2018-08-03T11:05:36.107Z,30.94
2018-08-03T11:08:04.710Z,30.98
2018-08-03T11:10:33.270Z,30.78
2018-08-03T11:13:03.102Z,30.61
2018-08-03T11:15:31.632Z,30.67
2018-08-03T11:18:00.122Z,31.08
2018-08-03T11:20:28.697Z,31.24
2018-08-03T11:22:57.208Z,31.30
2018-08-03T11:25:25.711Z,31.15
2018-08-03T11:27:54.391Z,31.14
2018-08-03T11:30:22.917Z,31.07
2018-08-03T11:32:51.464Z,31.07
2018-08-03T11:35:19.992Z,31.26
2018-08-03T11:37:48.588Z,31.27
2018-08-03T11:40:17.105Z,31.51
2018-08-03T11:42:45.620Z,31.42
2018-08-03T11:45:14.255Z,31.35
2018-08-03T11:47:42.750Z,31.43
2018-08-03T11:50:11.646Z,31.51
2018-08-03T11:52:40.512Z,31.47
2018-08-03T11:55:09.099Z,31.24
2018-08-03T11:57:37.696Z,31.06
2018-08-03T12:00:06.551Z,31.19
2018-08-03T12:02:35.182Z,31.50
2018-08-03T12:05:03.792Z,31.58
2018-08-03T12:07:32.297Z,31.63
2018-08-03T12:10:00.859Z,31.72
2018-08-03T12:12:29.419Z,31.62
2018-08-03T12:14:57.910Z,31.59
2018-08-03T12:17:26.400Z,31.83
2018-08-03T12:19:54.905Z,31.59
2018-08-03T12:22:23.390Z,31.62
2018-08-03T12:24:52.159Z,31.91
2018-08-03T12:27:20.733Z,32.01
2018-08-03T12:29:49.211Z,32.01
2018-08-03T12:32:17.965Z,31.91
2018-08-03T12:34:46.494Z,32.01
2018-08-03T12:37:15.064Z,31.93
2018-08-03T12:39:43.592Z,32.04
2018-08-03T12:42:12.089Z,32.27
2018-08-03T12:44:40.591Z,32.34
2018-08-03T12:47:09.101Z,31.90
2018-08-03T12:49:37.674Z,31.98
2018-08-03T12:52:06.217Z,32.15
2018-08-03T12:54:34.759Z,32.28
2018-08-03T12:57:03.334Z,32.21
2018-08-03T12:59:31.837Z,32.31
2018-08-03T13:02:00.389Z,31.95
2018-08-03T13:04:28.874Z,31.44
2018-08-03T13:06:57.613Z,31.79
2018-08-03T13:09:27.059Z,32.01
2018-08-03T13:11:55.557Z,32.19
2018-08-03T13:14:24.293Z,32.28
2018-08-03T13:16:54.030Z,32.45
2018-08-03T13:19:22.874Z,32.49
2018-08-03T13:21:51.407Z,32.41
2018-08-03T13:24:19.984Z,32.07
2018-08-03T13:26:48.530Z,32.16
2018-08-03T13:29:17.249Z,32.24
2018-08-03T13:31:47.367Z,32.16
2018-08-03T13:34:16.009Z,32.22
2018-08-03T13:36:44.519Z,32.30
2018-08-03T13:39:13.047Z,32.43
2018-08-03T13:41:41.641Z,32.64
2018-08-03T13:44:10.109Z,32.32
2018-08-03T13:46:38.570Z,32.29
2018-08-03T13:49:07.172Z,32.32
2018-08-03T13:51:35.665Z,32.26
2018-08-03T13:54:04.173Z,32.30
2018-08-03T13:56:32.645Z,32.57
2018-08-03T13:59:01.114Z,32.69
2018-08-03T14:01:39.646Z,32.84
2018-08-03T14:04:08.183Z,32.85
2018-08-03T14:06:36.681Z,32.88
2018-08-03T14:09:06.217Z,32.71
2018-08-03T14:11:34.737Z,32.85
2018-08-03T14:14:03.261Z,32.91
2018-08-03T14:16:31.776Z,32.91
2018-08-03T14:19:00.297Z,33.13
2018-08-03T14:21:28.793Z,33.13
2018-08-03T14:23:57.260Z,32.91
2018-08-03T14:26:25.709Z,32.84
2018-08-03T14:28:54.492Z,32.70
2018-08-03T14:31:23.017Z,32.89
2018-08-03T14:33:51.468Z,32.95
2018-08-03T14:36:19.937Z,32.89
2018-08-03T14:38:48.421Z,33.02
2018-08-03T14:41:16.995Z,33.18
2018-08-03T14:43:45.614Z,33.32
2018-08-03T14:46:14.101Z,33.37
2018-08-03T14:48:42.658Z,33.31
2018-08-03T14:51:11.145Z,33.09
2018-08-03T14:53:39.625Z,32.61
2018-08-03T14:56:08.187Z,32.72
2018-08-03T14:58:36.721Z,32.91
2018-08-03T15:01:05.207Z,32.93
2018-08-03T15:03:33.750Z,32.86
2018-08-03T15:06:02.326Z,32.95
2018-08-03T15:08:30.971Z,33.04
2018-08-03T15:10:59.469Z,32.84
2018-08-03T15:13:28.058Z,32.70
2018-08-03T15:15:56.541Z,32.53
2018-08-03T15:18:25.021Z,32.36
2018-08-03T15:20:53.540Z,32.53
2018-08-03T15:23:22.012Z,32.62
2018-08-03T15:25:50.556Z,32.84
2018-08-03T15:28:19.022Z,32.97
2018-08-03T15:30:47.490Z,32.97
2018-08-03T15:33:16.424Z,32.98
2018-08-03T15:35:44.886Z,32.79
2018-08-03T15:38:13.369Z,33.01
2018-08-03T15:40:41.884Z,32.97
2018-08-03T15:43:10.361Z,32.78
2018-08-03T15:45:38.922Z,32.58
2018-08-03T15:48:07.422Z,32.55
2018-08-03T15:50:35.892Z,32.48
2018-08-03T15:53:04.443Z,32.44
2018-08-03T15:55:32.909Z,32.39
2018-08-03T15:58:01.481Z,32.52
2018-08-03T16:00:30.039Z,32.45
2018-08-03T16:02:58.534Z,32.39
2018-08-03T16:05:27.151Z,32.53
2018-08-03T16:07:55.840Z,32.52
2018-08-03T16:10:24.377Z,32.43
2018-08-03T16:12:52.899Z,32.47
2018-08-03T16:15:21.379Z,32.51
2018-08-03T16:17:49.892Z,32.62
2018-08-03T16:20:19.082Z,32.71
2018-08-03T16:22:48.520Z,32.49
2018-08-03T16:25:17.666Z,32.44
2018-08-03T16:27:46.177Z,32.34
2018-08-03T16:30:14.697Z,32.41
2018-08-03T16:32:43.328Z,32.36
2018-08-03T16:35:11.989Z,32.26
2018-08-03T16:37:40.481Z,32.23
2018-08-03T16:40:09.881Z,32.12
2018-08-03T16:42:38.484Z,32.08
2018-08-03T16:45:08.000Z,32.21
2018-08-03T16:47:36.506Z,32.15
2018-08-03T16:50:05.594Z,32.23
2018-08-03T16:52:34.069Z,32.17
2018-08-03T16:55:02.561Z,32.17
2018-08-03T16:57:31.057Z,32.11
2018-08-03T16:59:59.552Z,32.13
2018-08-03T17:02:28.017Z,32.14
2018-08-03T17:04:56.591Z,32.19
2018-08-03T17:07:25.047Z,32.13
2018-08-03T17:09:53.549Z,32.12
2018-08-03T17:12:22.064Z,32.07
2018-08-03T17:14:50.592Z,31.86
2018-08-03T17:17:19.065Z,31.80
2018-08-03T17:19:47.556Z,31.70
2018-08-03T17:22:16.040Z,31.65
2018-08-03T17:24:44.512Z,31.51
2018-08-03T17:27:13.031Z,31.51
2018-08-03T17:29:41.530Z,31.47
2018-08-03T17:32:12.982Z,31.38
2018-08-03T17:34:41.477Z,31.16
2018-08-03T17:37:09.956Z,31.05
2018-08-03T17:39:38.393Z,31.05
2018-08-03T17:42:07.108Z,30.80
2018-08-03T17:44:35.625Z,30.75
2018-08-03T17:47:04.128Z,30.71
2018-08-03T17:49:32.639Z,30.70
2018-08-03T17:52:01.173Z,30.72
2018-08-03T17:54:29.754Z,30.60
2018-08-03T17:56:58.342Z,30.59
2018-08-03T17:59:26.844Z,30.52
2018-08-03T18:01:55.424Z,30.35
2018-08-03T18:04:25.201Z,30.30
2018-08-03T18:06:53.989Z,30.18
2018-08-03T18:09:22.584Z,30.10
2018-08-03T18:11:51.029Z,30.11
2018-08-03T18:14:19.630Z,30.14
2018-08-03T18:16:48.144Z,30.07
2018-08-03T18:19:16.592Z,29.93
2018-08-03T18:21:45.569Z,29.91
2018-08-03T18:24:14.140Z,29.64
2018-08-03T18:26:42.658Z,29.41
2018-08-03T18:29:11.184Z,29.25
2018-08-03T18:31:39.661Z,29.11
2018-08-03T18:34:08.225Z,28.99
2018-08-03T18:36:36.735Z,28.89
2018-08-03T18:39:07.500Z,28.70
2018-08-03T18:41:35.990Z,28.61
2018-08-03T18:44:04.928Z,28.51
2018-08-03T18:46:33.513Z,28.42
2018-08-03T18:49:02.003Z,28.28
2018-08-03T18:51:30.516Z,28.18
2018-08-03T18:53:59.001Z,28.03
2018-08-03T18:56:27.540Z,27.88
2018-08-03T18:58:56.073Z,27.77
2018-08-03T19:01:24.653Z,27.67
2018-08-03T19:03:53.301Z,27.50
2018-08-03T19:06:21.902Z,27.41
2018-08-03T19:08:50.389Z,27.25
2018-08-03T19:11:19.288Z,27.12
2018-08-03T19:13:47.769Z,27.03
2018-08-03T19:16:16.827Z,26.94
2018-08-03T19:18:45.354Z,26.79
2018-08-03T19:21:13.997Z,26.75
2018-08-03T19:23:42.520Z,26.69
2018-08-03T19:26:11.098Z,26.57
2018-08-03T19:28:39.663Z,26.47
2018-08-03T19:31:08.154Z,26.27
2018-08-03T19:33:36.656Z,26.22
2018-08-03T19:36:05.405Z,26.20
2018-08-03T19:38:33.917Z,26.12
2018-08-03T19:41:02.427Z,25.96
2018-08-03T19:43:30.982Z,25.85
2018-08-03T19:45:59.483Z,25.75
2018-08-03T19:48:28.028Z,25.74
2018-08-03T19:50:56.525Z,25.75
2018-08-03T19:53:25.045Z,25.67
2018-08-03T19:55:53.633Z,25.61
2018-08-03T19:58:22.229Z,25.50
2018-08-03T20:00:50.752Z,25.47
2018-08-03T20:03:19.264Z,25.39
2018-08-03T20:05:47.809Z,25.27
2018-08-03T20:08:16.366Z,25.24
2018-08-03T20:10:44.820Z,25.15
2018-08-03T20:13:13.376Z,25.06
2018-08-03T20:15:42.008Z,25.04
2018-08-03T20:18:10.508Z,24.96
2018-08-03T20:20:39.000Z,24.96
2018-08-03T20:23:07.509Z,24.84
2018-08-03T20:25:36.028Z,24.83
2018-08-03T20:28:04.530Z,24.68
2018-08-03T20:30:33.072Z,24.70
2018-08-03T20:33:01.605Z,24.68
2018-08-03T20:35:30.082Z,24.71
2018-08-03T20:37:58.581Z,24.61
2018-08-03T20:40:27.127Z,24.52
2018-08-03T20:42:55.625Z,24.49
2018-08-03T20:45:24.299Z,24.51
2018-08-03T20:47:52.769Z,24.36
2018-08-03T20:50:21.293Z,24.31
2018-08-03T20:52:50.117Z,24.24
2018-08-03T20:55:18.777Z,24.15
2018-08-03T20:57:47.298Z,24.07
2018-08-03T21:00:15.905Z,24.02
2018-08-03T21:02:44.380Z,23.91
2018-08-03T21:05:12.901Z,23.87
2018-08-03T21:07:41.388Z,23.88
2018-08-03T21:10:09.854Z,23.84
2018-08-03T21:12:38.476Z,23.75
2018-08-03T21:15:08.225Z,23.65
2018-08-03T21:17:36.762Z,23.59
2018-08-03T21:20:06.149Z,23.64
2018-08-03T21:22:34.672Z,23.62
2018-08-03T21:25:03.192Z,23.56
2018-08-03T21:27:31.725Z,23.42
2018-08-03T21:30:00.238Z,23.44
2018-08-03T21:32:28.914Z,23.43
2018-08-03T21:34:57.409Z,23.41
2018-08-03T21:37:25.980Z,23.34
2018-08-03T21:39:54.448Z,23.37
2018-08-03T21:42:22.970Z,23.24
2018-08-03T21:44:51.436Z,23.22
2018-08-03T21:47:20.047Z,23.19
2018-08-03T21:49:48.584Z,23.17
2018-08-03T21:52:17.113Z,23.12
2018-08-03T21:54:45.606Z,23.02
2018-08-03T21:57:14.118Z,22.94
2018-08-03T21:59:42.677Z,22.92
2018-08-03T22:02:11.388Z,22.81
2018-08-03T22:04:39.872Z,22.69
2018-08-03T22:07:08.677Z,22.70
2018-08-03T22:09:37.161Z,22.60
2018-08-03T22:12:06.130Z,22.48
2018-08-03T22:14:35.012Z,22.35
2018-08-03T22:17:03.561Z,22.29
2018-08-03T22:19:32.009Z,22.20
2018-08-03T22:22:00.544Z,22.15
2018-08-03T22:24:29.128Z,22.04
2018-08-03T22:26:57.532Z,21.94
2018-08-03T22:29:26.004Z,21.90
2018-08-03T22:31:54.532Z,21.78
2018-08-03T22:34:23.380Z,21.72
2018-08-03T22:36:51.894Z,21.65
2018-08-03T22:39:20.662Z,21.63
2018-08-03T22:41:49.589Z,21.52
2018-08-03T22:44:18.102Z,21.43
2018-08-03T22:46:46.658Z,21.38
2018-08-03T22:49:15.170Z,21.39
2018-08-03T22:51:43.724Z,21.43
2018-08-03T22:54:12.215Z,21.35
2018-08-03T22:56:40.705Z,21.41
2018-08-03T22:59:09.255Z,21.38
2018-08-03T23:01:37.783Z,21.41
2018-08-03T23:04:06.416Z,21.46
2018-08-03T23:06:34.905Z,21.53
2018-08-03T23:09:03.925Z,21.45
2018-08-03T23:11:32.432Z,21.44
2018-08-03T23:14:00.968Z,21.44
2018-08-03T23:16:29.515Z,21.37
2018-08-03T23:18:57.971Z,21.35
2018-08-03T23:21:26.501Z,21.33
2018-08-03T23:23:54.968Z,21.23
2018-08-03T23:26:23.592Z,21.27
2018-08-03T23:28:52.159Z,21.22
2018-08-03T23:31:20.642Z,21.20
2018-08-03T23:33:49.193Z,21.15
2018-08-03T23:36:17.672Z,21.16
2018-08-03T23:38:46.166Z,21.07
2018-08-03T23:41:14.717Z,20.97
2018-08-03T23:43:43.222Z,21.00
2018-08-03T23:46:11.771Z,20.99
2018-08-03T23:48:40.669Z,20.93
2018-08-03T23:51:09.148Z,21.08
2018-08-03T23:53:37.645Z,21.03
2018-08-03T23:56:06.166Z,20.94
2018-08-03T23:58:34.658Z,20.93
